Prattsville, Arkansas
Current Conditions -  °F | °C
As of 7:56 AM on Friday 28 Nov 2014 (Local Time) from KADF Reporting Station
Haze Haze  
Wind Chill: 31°   Ceiling: Unl
Heat Index: 31°   Visibility: 4mi
Dew Point: 31°   Wind: 0mph
Humidity: 100%   Direction: NA
Pressure: 30.37"   Gusts: NA
Location:  34.31°N, 92.55°W
Report Text: KADF 281356Z AUTO 00000KT 4SM BR CLR M01/M01 A3037 RMK AO2 T10051005 SLP302
Loading
Personal Weather Stations






























Interactive Weather Map New forecast layout! Learn more

10-Day Weather Forecast

Advertisements
Track Severe Weather on mobile